YMIB weather

Mintabie Airport
South Australia, Australia

Public forecast

Using degrees Celsius for public forecast. Weather courtesy of forecast.io.

METAR (pilot weather report)

Closest report is Coober Pedy Airport, 127.2 nm (235.6 km) SE. Retrieved 2019/03/26 15:00 UTC (56 minutes ago):

YCBP 261500Z AUTO 15007KT 9999 // NCD 17/01 Q1021

TAF (pilot weather forecast)

Closest forecast is Alice Springs Airport, 213.9 nm (396.1 km) N. Retrieved 2019/03/26 12:00 UTC (4 hours ago):

TAF YBAS 261122Z 2612/2712 14010KT CAVOK FM262300 14014KT CAVOK FM271100 12008KT CAVOK